This is the latest recevied weather packets stored in our database for station/object OE9GTV. If no packets are shown the sender has not sent any weather packets the latest 10 day(s).
| Time | Temp. | Humidity | Pressure | Rain* | Wind** | Luminosity | Snow |
|---|---|---|---|---|---|---|---|
| 1777018871 | 15° C | 46% | 1018.7 hPa | 0 mm | - | 0 W/m² | - |
| 1777018271 | 13.89° C | 46% | 1018.7 hPa | 0 mm | - | 0 W/m² | - |
| 1777017671 | 13.33° C | 49% | 1018.7 hPa | 0 mm | - | 0 W/m² | - |
| 1777017071 | 13.33° C | 51% | 1018.8 hPa | 0 mm | - | 0 W/m² | - |
| 1777016471 | 12.78° C | 55% | 1018.8 hPa | 0 mm | - | 0 W/m² | - |
| 1777015871 | 11.67° C | 58% | 1018.9 hPa | 0 mm | - | 0 W/m² | - |
| 1777015271 | 11.11° C | 60% | 1019 hPa | 0 mm | - | 0 W/m² | - |
| 1777014671 | 8.89° C | 68% | 1019.1 hPa | 0 mm | - | 0 W/m² | - |
| 1777014071 | 8.33° C | 70% | 1019.2 hPa | 0 mm | - | 0 W/m² | - |
| 1777013471 | 7.78° C | 72% | 1019.3 hPa | 0 mm | - | 0 W/m² | - |
| 1777012870 | 7.22° C | 73% | 1019.3 hPa | 0 mm | - | 0 W/m² | - |
| 1777012270 | 6.67° C | 73% | 1019.3 hPa | 0 mm | - | 0 W/m² | - |
| 1777011670 | 6.11° C | 73% | 1019.5 hPa | 0 mm | - | 0 W/m² | - |
| 1777011070 | 6.11° C | 73% | 1019.5 hPa | 0 mm | - | 0 W/m² | - |
| 1777010470 | 6.11° C | 72% | 1019.7 hPa | 0 mm | - | 0 W/m² | - |
| 1777009870 | 5.56° C | 72% | 1019.8 hPa | 0 mm | - | 0 W/m² | - |
| 1777009275 | 5.56° C | 72% | 1019.9 hPa | 0 mm | - | 0 W/m² | - |
| 1777008675 | 5.56° C | 72% | 1019.9 hPa | 0 mm | - | 0 W/m² | - |
| 1777008075 | 5.56° C | 72% | 1019.9 hPa | 0 mm | - | 0 W/m² | - |
| 1777007475 | 5.56° C | 71% | 1019.9 hPa | 0 mm | - | 0 W/m² | - |
| 1777006875 | 5.56° C | 71% | 1020 hPa | 0 mm | - | 0 W/m² | - |
| 1777006275 | 5.56° C | 71% | 1019.9 hPa | 0 mm | - | 0 W/m² | - |
| 1777005675 | 6.11° C | 71% | 1019.9 hPa | 0 mm | - | 0 W/m² | - |
| 1777005074 | 6.11° C | 70% | 1019.9 hPa | 0 mm | - | 0 W/m² | - |
| 1777004474 | 6.11° C | 70% | 1019.9 hPa | 0 mm | - | 0 W/m² | - |
* Rain latest hour (hover to see other rain measurements)
** Current wind speed in m/s (hover to see current wind gust speed)